Time;durP1;ratioP1;P1;durP2;ratioP2;P2;SDS_P1;SDS_P2;PMS_P1;PMS_P2;Temp;Humidity;BMP_temperature;BMP_pressure;BME280_temperature;BME280_humidity;BME280_pressure;Samples;Min_cycle;Max_cycle;Signal;HPM_P1;HPM_P2
2022/05/06 00:01:58;;;;;;;6.53;5.53;;;13.50;99.90;;;;;;10375854;28;20324;-71
2022/05/06 00:06:59;;;;;;;5.17;4.60;;;13.50;99.90;;;;;;10356956;28;20281;-71
2022/05/06 00:11:59;;;;;;;7.23;5.67;;;13.50;99.90;;;;;;10374463;28;20229;-72
2022/05/06 00:17:03;;;;;;;8.70;5.53;;;13.40;99.90;;;;;;10373856;28;20703;-71
2022/05/06 00:22:04;;;;;;;6.53;4.80;;;13.30;99.90;;;;;;10372469;28;20220;-71
2022/05/06 00:27:05;;;;;;;7.33;5.90;;;13.20;99.90;;;;;;10356237;28;20591;-72
2022/05/06 00:32:06;;;;;;;6.53;5.00;;;13.10;99.90;;;;;;10358570;28;20229;-70
2022/05/06 00:37:06;;;;;;;7.47;5.00;;;13.00;99.90;;;;;;10372976;28;20228;-71
2022/05/06 00:42:08;;;;;;;6.37;4.50;;;12.90;99.90;;;;;;10356908;28;20275;-71
2022/05/06 00:47:09;;;;;;;7.33;4.60;;;12.80;99.90;;;;;;10371800;28;20242;-71
2022/05/06 00:52:10;;;;;;;8.30;4.43;;;12.80;99.90;;;;;;10371575;28;20241;-72
2022/05/06 00:57:11;;;;;;;7.30;4.80;;;12.80;99.90;;;;;;10367749;28;20431;-71
2022/05/06 01:02:12;;;;;;;8.03;4.53;;;12.70;99.90;;;;;;10371695;28;20603;-72
2022/05/06 01:07:13;;;;;;;6.30;4.40;;;12.70;99.90;;;;;;10355570;28;20216;-71
2022/05/06 01:12:14;;;;;;;8.07;4.50;;;12.60;99.90;;;;;;10373849;28;20229;-72
2022/05/06 01:17:16;;;;;;;7.17;5.30;;;12.50;99.90;;;;;;10356500;28;20219;-71
2022/05/06 01:22:17;;;;;;;8.70;4.63;;;12.50;99.90;;;;;;10355226;28;20313;-71
2022/05/06 01:27:28;;;;;;;7.57;4.87;;;12.40;99.90;;;;;;10369587;28;20244;-71
2022/05/06 01:32:33;;;;;;;6.93;4.70;;;12.30;99.90;;;;;;10371268;28;20237;-72
2022/05/06 01:37:35;;;;;;;6.13;5.07;;;12.20;99.90;;;;;;10366897;28;20296;-71
2022/05/06 01:42:38;;;;;;;6.47;4.33;;;12.10;99.90;;;;;;10370247;28;20256;-72
2022/05/06 01:47:40;;;;;;;11.00;5.40;;;12.10;99.90;;;;;;10354721;28;20273;-71
2022/05/06 01:52:42;;;;;;;8.47;5.43;;;12.10;99.90;;;;;;10371773;28;20241;-71
2022/05/06 01:57:43;;;;;;;9.00;6.10;;;12.00;99.90;;;;;;10351118;28;20232;-72
2022/05/06 02:02:43;;;;;;;12.23;5.90;;;12.00;99.90;;;;;;10368570;28;20233;-72
2022/05/06 02:07:48;;;;;;;10.20;5.17;;;11.90;99.90;;;;;;10354700;28;20224;-71
2022/05/06 02:12:49;;;;;;;8.53;5.00;;;11.90;99.90;;;;;;10369750;28;20312;-71
2022/05/06 02:17:50;;;;;;;9.57;5.37;;;11.80;99.90;;;;;;10352367;28;20299;-71
2022/05/06 02:22:50;;;;;;;10.23;5.13;;;11.70;99.90;;;;;;10368619;28;20225;-71
2022/05/06 02:27:51;;;;;;;9.33;5.33;;;11.70;99.90;;;;;;10369955;28;20312;-72
2022/05/06 02:38:12;;;;;;;8.63;4.90;;;11.50;99.90;;;;;;10367624;28;20245;-71
2022/05/06 02:43:18;;;;;;;9.63;5.10;;;11.40;99.90;;;;;;10367003;28;20237;-72
2022/05/06 02:48:19;;;;;;;5.43;4.27;;;11.40;99.90;;;;;;10367475;28;20649;-72
2022/05/06 02:53:23;;;;;;;6.33;4.20;;;11.40;99.90;;;;;;10368140;28;20220;-73
2022/05/06 02:58:23;;;;;;;7.03;4.20;;;11.30;99.90;;;;;;10356864;28;20233;-73
2022/05/06 03:03:25;;;;;;;4.37;3.97;;;11.30;99.90;;;;;;10350390;28;20721;-73
2022/05/06 03:08:26;;;;;;;7.60;4.90;;;11.30;99.90;;;;;;10349990;28;20221;-72
2022/05/06 03:13:26;;;;;;;6.57;5.17;;;11.20;99.90;;;;;;10350561;28;20311;-71
2022/05/06 03:18:27;;;;;;;6.60;5.13;;;11.10;99.90;;;;;;10367738;28;20236;-72
2022/05/06 03:23:28;;;;;;;9.63;5.47;;;11.00;99.90;;;;;;10365930;28;20258;-71
2022/05/06 03:28:31;;;;;;;8.30;4.83;;;11.00;99.90;;;;;;10366738;28;20766;-70
2022/05/06 03:33:33;;;;;;;8.70;5.03;;;11.00;99.90;;;;;;10365286;28;20248;-71
2022/05/06 03:38:34;;;;;;;9.87;4.70;;;10.90;99.90;;;;;;10364889;28;20210;-72
2022/05/06 03:43:34;;;;;;;6.20;4.40;;;10.90;99.90;;;;;;10365969;28;20217;-71
2022/05/06 03:48:35;;;;;;;5.67;4.40;;;10.90;99.90;;;;;;10365920;28;20217;-71
2022/05/06 03:53:36;;;;;;;5.33;4.67;;;10.90;99.90;;;;;;10366126;28;20237;-71
2022/05/06 03:58:36;;;;;;;6.73;4.07;;;10.90;99.90;;;;;;10366727;28;20359;-71
2022/05/06 04:03:41;;;;;;;4.87;4.27;;;10.90;99.90;;;;;;10364580;28;20308;-71
2022/05/06 04:08:42;;;;;;;5.53;4.17;;;11.00;99.90;;;;;;10366916;28;20236;-72
2022/05/06 04:13:42;;;;;;;7.03;4.50;;;11.00;99.90;;;;;;10375618;28;20228;-72
2022/05/06 04:18:43;;;;;;;5.13;4.13;;;11.10;99.90;;;;;;10371686;28;20220;-72
2022/05/06 04:23:44;;;;;;;8.43;4.10;;;11.10;99.90;;;;;;10372592;28;20640;-70
2022/05/06 04:28:45;;;;;;;4.50;3.67;;;11.20;99.90;;;;;;10374247;28;20225;-71
2022/05/06 04:33:45;;;;;;;6.33;3.87;;;11.20;99.90;;;;;;10373788;28;20229;-70
2022/05/06 04:38:46;;;;;;;4.93;3.70;;;11.30;99.90;;;;;;10355564;28;20225;-71
2022/05/06 04:43:47;;;;;;;5.17;3.40;;;11.30;99.90;;;;;;10357739;28;20662;-71
2022/05/06 04:48:47;;;;;;;5.30;3.80;;;11.30;99.90;;;;;;10352697;28;20267;-71
2022/05/06 04:53:48;;;;;;;5.60;3.70;;;11.30;99.90;;;;;;10372139;28;20232;-71
2022/05/06 04:58:48;;;;;;;9.47;4.27;;;11.30;99.90;;;;;;10369017;28;20268;-71
2022/05/06 05:03:49;;;;;;;9.10;4.13;;;11.20;99.90;;;;;;10370147;28;20237;-71
2022/05/06 05:08:50;;;;;;;6.10;3.87;;;11.20;99.90;;;;;;10372953;28;20221;-71
2022/05/06 05:13:50;;;;;;;7.53;4.00;;;11.30;99.90;;;;;;10354982;28;20942;-69
2022/05/06 05:18:51;;;;;;;5.77;4.10;;;11.40;99.90;;;;;;10369568;28;20232;-71
2022/05/06 05:23:52;;;;;;;4.37;3.80;;;11.50;99.90;;;;;;10363530;28;20236;-72
2022/05/06 05:28:52;;;;;;;7.17;3.60;;;12.00;99.90;;;;;;10351043;28;20217;-71
2022/05/06 05:33:53;;;;;;;6.40;3.70;;;12.30;99.90;;;;;;10366589;28;20233;-72
2022/05/06 05:38:54;;;;;;;4.77;3.90;;;12.50;99.90;;;;;;10354155;28;20376;-70
2022/05/06 05:49:13;;;;;;;6.63;3.47;;;12.70;99.90;;;;;;10367352;28;20209;-70
2022/05/06 05:54:15;;;;;;;8.37;4.20;;;13.20;99.90;;;;;;10364654;28;20224;-71
2022/05/06 05:59:19;;;;;;;5.27;3.60;;;13.40;99.90;;;;;;10342233;28;20300;-70
2022/05/06 06:04:19;;;;;;;8.40;3.90;;;13.50;99.90;;;;;;10364468;28;20709;-69
2022/05/06 06:09:22;;;;;;;9.80;4.17;;;15.80;99.90;;;;;;10341834;28;20231;-71
2022/05/06 06:14:23;;;;;;;12.63;4.50;;;18.40;99.90;;;;;;10360776;28;20313;-70
2022/05/06 06:19:24;;;;;;;7.73;3.60;;;20.00;93.20;;;;;;10363320;28;20336;-72
2022/05/06 06:24:28;;;;;;;10.87;3.87;;;21.30;82.10;;;;;;10362328;28;20711;-71
2022/05/06 06:29:29;;;;;;;8.40;4.10;;;22.30;71.00;;;;;;10359230;28;20221;-70
2022/05/06 06:34:30;;;;;;;7.73;3.70;;;23.00;65.00;;;;;;10345546;28;20225;-70
2022/05/06 06:39:31;;;;;;;9.93;4.23;;;22.50;63.70;;;;;;10362198;28;20792;-70
2022/05/06 06:44:31;;;;;;;7.30;3.87;;;22.50;60.80;;;;;;10346121;28;20232;-71
2022/05/06 06:49:32;;;;;;;8.43;2.73;;;23.30;59.90;;;;;;10348578;28;20226;-70
2022/05/06 06:54:32;;;;;;;6.53;3.00;;;24.20;56.60;;;;;;10359536;28;20276;-71
2022/05/06 06:59:33;;;;;;;3.50;2.90;;;24.30;55.30;;;;;;10365881;28;20273;-71
2022/05/06 07:04:35;;;;;;;3.77;2.50;;;24.20;54.20;;;;;;10336582;28;20311;-71
2022/05/06 07:14:55;;;;;;;4.97;2.80;;;24.50;52.50;;;;;;10358344;28;20220;-71
2022/05/06 07:19:56;;;;;;;5.53;2.47;;;25.10;50.90;;;;;;10360299;28;20228;-72
2022/05/06 07:24:56;;;;;;;5.37;2.80;;;25.80;49.80;;;;;;10359537;28;20252;-72
2022/05/06 07:29:57;;;;;;;5.67;2.80;;;26.70;48.50;;;;;;10339009;28;20751;-71
2022/05/06 07:34:57;;;;;;;3.13;2.23;;;26.90;46.30;;;;;;10343351;28;20229;-71
2022/05/06 07:39:58;;;;;;;4.70;2.70;;;27.20;46.10;;;;;;10350151;28;20221;-72
2022/05/06 07:44:59;;;;;;;7.57;3.17;;;26.80;45.50;;;;;;10355385;28;20248;-72
2022/05/06 07:49:59;;;;;;;6.33;2.73;;;27.00;45.60;;;;;;10351412;28;20229;-72
2022/05/06 07:55:00;;;;;;;5.23;2.57;;;27.90;43.50;;;;;;10363981;28;20275;-70
2022/05/06 08:00:01;;;;;;;4.63;2.33;;;28.50;43.00;;;;;;10365159;28;20341;-70
2022/05/06 08:05:02;;;;;;;5.27;2.13;;;28.50;41.10;;;;;;10363312;28;20233;-72
2022/05/06 08:10:06;;;;;;;6.40;2.73;;;29.30;39.30;;;;;;10368159;28;20235;-71
2022/05/06 08:15:07;;;;;;;4.37;2.00;;;28.50;40.40;;;;;;10357092;28;20303;-71
2022/05/06 08:20:09;;;;;;;5.87;2.70;;;28.40;40.50;;;;;;10361464;28;20189;-72
2022/05/06 08:25:11;;;;;;;4.30;2.17;;;28.30;39.70;;;;;;10355857;28;20554;-70
2022/05/06 08:30:13;;;;;;;4.30;2.50;;;28.60;39.80;;;;;;10355774;28;20332;-71
2022/05/06 08:35:24;;;;;;;4.17;1.70;;;29.40;38.70;;;;;;10358279;28;20899;-72
2022/05/06 08:40:26;;;;;;;3.60;2.00;;;30.10;36.20;;;;;;10350925;28;20277;-71
2022/05/06 08:50:55;;;;;;;4.70;2.27;;;30.90;35.00;;;;;;10370390;28;20711;-72
2022/05/06 08:55:58;;;;;;;2.67;1.17;;;30.30;35.10;;;;;;10353554;28;20703;-72
2022/05/06 09:01:03;;;;;;;4.03;1.30;;;30.60;33.60;;;;;;10349321;28;20241;-71
2022/05/06 09:06:04;;;;;;;3.40;1.53;;;31.20;32.70;;;;;;10351683;28;20240;-71
2022/05/06 09:11:09;;;;;;;5.83;1.53;;;31.80;31.30;;;;;;10351551;28;20241;-71
2022/05/06 09:16:41;;;;;;;2.37;1.40;;;34.00;29.70;;;;;;10365404;28;20445;-73
2022/05/06 09:22:13;;;;;;;7.20;1.20;;;33.20;29.10;;;;;;10370384;28;20225;-71
2022/05/06 09:27:19;;;;;;;1.03;0.90;;;32.30;27.90;;;;;;10354737;28;20229;-71
2022/05/06 09:32:23;;;;;;;2.83;1.60;;;31.70;30.10;;;;;;10365804;28;20714;-72
2022/05/06 09:37:42;;;;;;;4.27;1.27;;;32.20;28.90;;;;;;10358547;28;20224;-71
2022/05/06 09:42:53;;;;;;;1.90;1.30;;;33.40;28.80;;;;;;10348975;28;20228;-72
2022/05/06 09:47:58;;;;;;;3.77;1.50;;;34.00;26.90;;;;;;10348956;28;20649;-71
2022/05/06 09:53:10;;;;;;;2.93;1.40;;;32.10;28.60;;;;;;10364272;28;20233;-70
2022/05/06 09:58:13;;;;;;;4.03;1.70;;;33.50;27.50;;;;;;10348755;28;20228;-71
2022/05/06 10:03:13;;;;;;;5.83;1.80;;;31.90;28.20;;;;;;10367188;28;20236;-72
2022/05/06 10:08:20;;;;;;;2.57;1.40;;;31.60;28.60;;;;;;10346700;28;20229;-71
2022/05/06 10:13:22;;;;;;;2.87;1.30;;;31.70;29.20;;;;;;10362521;28;20233;-71
2022/05/06 10:18:33;;;;;;;3.40;1.00;;;34.10;27.60;;;;;;10344496;28;20229;-71
2022/05/06 10:23:56;;;;;;;2.73;1.60;;;33.60;27.60;;;;;;10339930;28;20224;-72
2022/05/06 10:34:22;;;;;;;4.73;1.47;;;33.90;26.90;;;;;;10352586;28;20329;-72
2022/05/06 10:39:27;;;;;;;3.50;1.37;;;34.70;26.50;;;;;;10326805;28;20229;-72
2022/05/06 10:44:31;;;;;;;2.50;1.33;;;32.90;27.60;;;;;;10352448;28;20228;-72
2022/05/06 10:49:34;;;;;;;1.90;1.30;;;34.10;27.40;;;;;;10343965;28;20236;-72
2022/05/06 10:54:35;;;;;;;3.00;1.50;;;36.10;27.00;;;;;;10344959;28;20226;-71
2022/05/06 10:59:54;;;;;;;5.70;1.30;;;35.90;25.60;;;;;;10333389;28;20233;-71
2022/05/06 11:04:55;;;;;;;3.57;1.47;;;36.60;25.20;;;;;;10346482;28;20360;-71
2022/05/06 11:09:56;;;;;;;3.30;1.40;;;34.40;26.40;;;;;;10361232;28;20227;-72
2022/05/06 11:14:58;;;;;;;2.27;1.50;;;34.30;27.40;;;;;;10351463;28;20295;-71
2022/05/06 11:20:23;;;;;;;4.00;1.37;;;34.00;27.40;;;;;;10360423;28;20689;-72
2022/05/06 11:25:29;;;;;;;6.30;1.53;;;37.00;26.30;;;;;;10340180;28;20233;-72
2022/05/06 11:30:31;;;;;;;2.80;1.43;;;36.80;25.70;;;;;;10351893;28;20228;-71
2022/05/06 11:35:45;;;;;;;4.40;1.60;;;33.70;26.10;;;;;;10345009;28;20649;-72
2022/05/06 11:40:46;;;;;;;3.83;1.90;;;32.00;28.50;;;;;;10333367;28;20228;-72
2022/05/06 11:51:37;;;;;;;3.88;2.08;;;30.10;31.80;;;;;;10357387;28;20975;-70
2022/05/06 11:56:39;;;;;;;5.63;1.70;;;27.70;36.40;;;;;;10344017;28;20233;-72
2022/05/06 12:01:41;;;;;;;1.70;1.60;;;27.50;35.90;;;;;;10357281;28;20231;-71
2022/05/06 12:06:49;;;;;;;4.60;1.50;;;26.90;37.00;;;;;;10351908;28;20245;-71
2022/05/06 12:12:04;;;;;;;3.57;1.50;;;25.40;39.80;;;;;;10343481;28;20226;-72
2022/05/06 12:17:10;;;;;;;4.27;1.90;;;24.60;40.90;;;;;;10351300;28;20224;-72
2022/05/06 12:22:13;;;;;;;2.60;1.60;;;24.80;41.00;;;;;;10343436;28;20397;-72
2022/05/06 12:27:26;;;;;;;3.00;1.70;;;25.20;40.40;;;;;;10350400;28;20812;-71
2022/05/06 12:32:30;;;;;;;4.53;1.40;;;24.70;40.00;;;;;;10332248;28;20258;-71
2022/05/06 12:37:31;;;;;;;5.20;1.60;;;24.20;40.80;;;;;;10340857;28;20268;-73
2022/05/06 12:42:32;;;;;;;3.33;1.77;;;24.40;41.80;;;;;;10338789;28;20367;-72
2022/05/06 12:52:52;;;;;;;3.87;1.40;;;24.70;40.50;;;;;;10349898;28;20904;-70
2022/05/06 12:57:52;;;;;;;4.47;1.70;;;23.80;41.60;;;;;;10343626;28;20226;-70
2022/05/06 13:02:53;;;;;;;2.50;1.10;;;23.60;42.20;;;;;;10364663;28;20219;-70
2022/05/06 13:07:54;;;;;;;3.60;1.47;;;23.60;42.40;;;;;;10335812;28;20296;-70
2022/05/06 13:12:55;;;;;;;3.53;1.47;;;23.40;42.20;;;;;;10361762;28;20284;-70
2022/05/06 13:17:56;;;;;;;1.77;1.10;;;23.20;42.40;;;;;;10383490;28;20799;-69
2022/05/06 13:22:56;;;;;;;2.30;1.30;;;23.20;42.20;;;;;;10341756;28;20241;-70
2022/05/06 13:27:57;;;;;;;3.57;1.23;;;23.20;42.50;;;;;;10350824;28;20213;-70
2022/05/06 13:32:58;;;;;;;1.90;1.17;;;23.40;43.00;;;;;;10352540;28;20229;-70
2022/05/06 13:37:59;;;;;;;3.50;1.27;;;23.40;42.30;;;;;;10359573;28;20313;-70
2022/05/06 13:43:03;;;;;;;3.03;1.50;;;23.50;42.30;;;;;;10348489;28;20221;-70
2022/05/06 13:48:04;;;;;;;3.63;1.20;;;23.10;42.00;;;;;;10352112;28;20226;-69
2022/05/06 13:53:06;;;;;;;3.90;1.23;;;22.90;42.10;;;;;;10348778;28;20230;-72
2022/05/06 14:03:26;;;;;;;5.30;1.30;;;23.20;42.00;;;;;;10363162;28;20225;-71
2022/05/06 14:08:27;;;;;;;2.80;1.20;;;23.10;41.70;;;;;;10341197;28;20890;-69
2022/05/06 14:13:27;;;;;;;4.13;1.30;;;22.90;41.20;;;;;;10346641;28;20225;-70
2022/05/06 14:18:28;;;;;;;1.77;0.90;;;22.80;41.60;;;;;;10349640;28;20221;-69
2022/05/06 14:23:29;;;;;;;4.43;1.33;;;22.80;42.50;;;;;;10354344;28;20325;-69
2022/05/06 14:28:30;;;;;;;3.37;1.30;;;23.00;42.30;;;;;;10354557;28;20680;-72
2022/05/06 14:33:30;;;;;;;4.23;1.50;;;22.90;41.90;;;;;;10353531;28;20225;-70
2022/05/06 14:38:31;;;;;;;1.93;1.20;;;23.00;41.60;;;;;;10344532;28;20641;-71
2022/05/06 14:43:31;;;;;;;3.90;1.47;;;22.90;42.50;;;;;;10353743;28;20300;-71
2022/05/06 14:48:32;;;;;;;3.90;1.13;;;22.60;42.40;;;;;;10352238;28;20251;-70
2022/05/06 14:53:33;;;;;;;4.50;1.50;;;22.80;42.70;;;;;;10356426;28;20858;-71
2022/05/06 14:58:33;;;;;;;1.77;1.20;;;22.80;42.50;;;;;;10352929;28;20639;-71
2022/05/06 15:03:34;;;;;;;3.57;1.10;;;23.10;43.10;;;;;;10361558;28;20241;-71
2022/05/06 15:08:35;;;;;;;3.73;2.00;;;23.10;43.10;;;;;;10352948;28;20273;-70
2022/05/06 15:13:39;;;;;;;6.67;1.70;;;23.00;43.10;;;;;;10334680;28;20612;-70
2022/05/06 15:23:59;;;;;;;2.47;1.40;;;22.80;43.60;;;;;;10357352;28;20210;-72
2022/05/06 15:28:59;;;;;;;3.43;1.40;;;22.80;43.50;;;;;;10345521;28;20217;-70
2022/05/06 15:34:00;;;;;;;2.10;1.20;;;23.00;43.00;;;;;;10349396;28;20315;-71
2022/05/06 15:39:01;;;;;;;3.13;1.27;;;23.00;43.90;;;;;;10351966;28;20298;-70
2022/05/06 15:44:08;;;;;;;3.23;1.83;;;22.80;43.50;;;;;;10348855;28;20236;-71
2022/05/06 15:49:09;;;;;;;4.20;1.43;;;22.60;43.90;;;;;;10349706;28;20226;-70
2022/05/06 15:54:10;;;;;;;2.40;1.03;;;22.50;44.30;;;;;;10350503;28;20234;-70
2022/05/06 15:59:10;;;;;;;5.33;1.27;;;22.70;44.80;;;;;;10347125;28;20268;-70
2022/05/06 16:04:11;;;;;;;2.07;1.00;;;22.50;43.90;;;;;;10352124;28;20301;-70
2022/05/06 16:09:12;;;;;;;2.83;1.27;;;22.40;44.50;;;;;;10353727;28;20229;-71
2022/05/06 16:14:12;;;;;;;2.07;1.50;;;22.30;45.20;;;;;;10363323;28;20236;-71
2022/05/06 16:19:13;;;;;;;2.07;0.97;;;22.40;45.80;;;;;;10358351;28;20221;-71
2022/05/06 16:24:13;;;;;;;3.00;1.37;;;22.40;45.30;;;;;;10336387;28;20225;-71
2022/05/06 16:29:14;;;;;;;3.90;1.63;;;22.20;45.80;;;;;;10358575;28;20237;-70
2022/05/06 16:39:34;;;;;;;2.83;1.20;;;21.80;45.00;;;;;;10363081;28;20217;-70
2022/05/06 16:44:34;;;;;;;2.63;1.20;;;21.60;45.60;;;;;;10355069;28;20319;-70
2022/05/06 16:49:38;;;;;;;5.67;1.50;;;21.50;45.90;;;;;;10350160;28;20300;-70
2022/05/06 16:54:38;;;;;;;2.33;1.43;;;21.30;47.10;;;;;;10338415;28;20240;-70
2022/05/06 16:59:39;;;;;;;3.70;1.50;;;21.20;47.20;;;;;;10363418;28;20217;-70
2022/05/06 17:04:40;;;;;;;5.80;1.70;;;21.20;47.70;;;;;;10341187;28;20229;-70
2022/05/06 17:09:40;;;;;;;5.07;1.20;;;21.10;48.30;;;;;;10355677;28;20237;-70
2022/05/06 17:14:41;;;;;;;2.17;1.20;;;21.00;48.70;;;;;;10351720;28;20730;-70
2022/05/06 17:19:47;;;;;;;1.23;0.87;;;20.90;49.40;;;;;;10355041;28;20990;-71
2022/05/06 17:24:48;;;;;;;2.00;1.07;;;20.80;50.10;;;;;;10355307;28;20271;-70
2022/05/06 17:29:49;;;;;;;1.67;1.20;;;20.60;50.20;;;;;;10362423;28;20304;-71
2022/05/06 17:34:49;;;;;;;3.77;1.20;;;20.50;50.60;;;;;;10338627;28;20288;-70
2022/05/06 17:39:50;;;;;;;4.57;1.40;;;20.40;50.90;;;;;;10360511;28;20707;-70
2022/05/06 17:44:51;;;;;;;3.07;1.70;;;20.40;51.20;;;;;;10358501;28;20213;-71
2022/05/06 17:49:51;;;;;;;3.10;1.20;;;20.30;51.70;;;;;;10369762;28;20628;-71
2022/05/06 17:54:52;;;;;;;2.47;1.00;;;20.20;51.90;;;;;;10357734;28;20217;-72
2022/05/06 18:05:15;;;;;;;3.20;1.30;;;20.10;52.40;;;;;;10361128;28;20252;-70
2022/05/06 18:10:15;;;;;;;1.50;1.23;;;20.00;52.60;;;;;;10344029;28;20224;-69
2022/05/06 18:15:16;;;;;;;4.77;2.13;;;19.90;53.00;;;;;;10356421;28;20181;-69
2022/05/06 18:20:16;;;;;;;4.73;1.40;;;19.80;53.50;;;;;;10355534;28;20181;-70
2022/05/06 18:25:17;;;;;;;2.97;1.43;;;19.70;53.90;;;;;;10359605;28;20732;-70
2022/05/06 18:30:18;;;;;;;1.47;1.20;;;19.50;54.30;;;;;;10345831;28;20189;-69
2022/05/06 18:35:19;;;;;;;4.33;1.23;;;19.40;54.70;;;;;;10359437;28;20204;-71
2022/05/06 18:40:19;;;;;;;2.50;1.50;;;19.20;54.90;;;;;;10355927;28;20612;-71
2022/05/06 18:45:20;;;;;;;3.53;1.23;;;19.00;55.10;;;;;;10358873;28;20195;-69
2022/05/06 18:50:21;;;;;;;2.47;1.20;;;18.90;55.90;;;;;;10363092;28;20228;-69
2022/05/06 18:55:22;;;;;;;3.57;1.80;;;18.70;56.30;;;;;;10339477;28;20193;-71
2022/05/06 19:00:22;;;;;;;2.30;1.30;;;18.50;57.20;;;;;;10347681;28;20212;-71
2022/05/06 19:05:27;;;;;;;4.40;1.60;;;18.20;57.80;;;;;;10351192;28;20230;-71
2022/05/06 19:10:28;;;;;;;4.10;1.70;;;18.00;58.30;;;;;;10369863;28;20234;-70
2022/05/06 19:15:32;;;;;;;2.77;1.70;;;17.80;58.90;;;;;;10348119;28;20224;-71
2022/05/06 19:20:33;;;;;;;4.33;2.13;;;17.60;60.00;;;;;;10368197;28;20239;-70
2022/05/06 19:25:34;;;;;;;6.30;1.90;;;17.40;61.60;;;;;;10367160;28;20222;-71
2022/05/06 19:30:39;;;;;;;3.03;1.70;;;17.30;62.10;;;;;;10363480;28;20267;-70
2022/05/06 19:35:39;;;;;;;2.30;1.80;;;17.20;61.80;;;;;;10358205;28;20218;-70
2022/05/06 19:40:42;;;;;;;4.13;1.80;;;17.10;62.20;;;;;;10364603;28;20211;-72
2022/05/06 19:45:42;;;;;;;8.10;5.43;;;17.00;62.60;;;;;;10362979;28;20273;-71
2022/05/06 19:50:43;;;;;;;12.60;8.50;;;16.80;65.40;;;;;;10352515;28;20229;-71
2022/05/06 19:55:44;;;;;;;7.23;4.07;;;16.70;68.60;;;;;;10360224;28;20233;-70
2022/05/06 20:00:44;;;;;;;6.77;5.37;;;16.60;70.50;;;;;;10343794;28;20232;-71
2022/05/06 20:05:45;;;;;;;8.37;4.63;;;16.40;71.90;;;;;;10350817;28;20229;-71
2022/05/06 20:10:46;;;;;;;11.90;6.57;;;16.30;73.30;;;;;;10370139;28;20225;-72
2022/05/06 20:15:46;;;;;;;8.50;5.87;;;16.20;74.00;;;;;;10366930;28;20213;-71
2022/05/06 20:20:47;;;;;;;9.00;7.00;;;16.10;74.80;;;;;;10368319;28;20595;-71
2022/05/06 20:25:47;;;;;;;7.37;6.13;;;16.00;76.00;;;;;;10370192;28;20221;-71
2022/05/06 20:30:48;;;;;;;12.10;9.07;;;15.90;76.50;;;;;;10373955;28;20224;-71
2022/05/06 20:35:49;;;;;;;10.07;7.67;;;15.80;78.00;;;;;;10353052;28;20213;-74
2022/05/06 20:40:53;;;;;;;7.67;6.07;;;15.70;79.10;;;;;;10352847;28;20305;-71
2022/05/06 20:45:54;;;;;;;4.67;3.67;;;15.60;80.30;;;;;;10358985;28;20220;-72
2022/05/06 20:50:59;;;;;;;12.50;9.43;;;15.60;81.70;;;;;;10341866;28;20240;-71
2022/05/06 20:56:00;;;;;;;7.37;6.00;;;15.50;82.30;;;;;;10345015;28;20694;-71
2022/05/06 21:01:00;;;;;;;3.70;3.23;;;15.40;83.80;;;;;;10339005;28;20224;-72
2022/05/06 21:06:01;;;;;;;15.80;10.67;;;15.40;84.80;;;;;;10349515;28;20781;-71
2022/05/06 21:16:24;;;;;;;9.03;6.77;;;15.30;85.50;;;;;;10371925;28;20222;-72
2022/05/06 21:21:26;;;;;;;12.90;6.87;;;15.10;85.60;;;;;;10367193;28;20226;-72
2022/05/06 21:26:26;;;;;;;8.53;4.50;;;15.00;86.60;;;;;;10367738;28;20649;-70
2022/05/06 21:31:30;;;;;;;5.53;3.67;;;15.00;88.40;;;;;;10333780;28;20259;-71
2022/05/06 21:36:31;;;;;;;8.53;4.67;;;14.80;90.00;;;;;;10367153;28;20219;-72
2022/05/06 21:41:31;;;;;;;8.63;5.17;;;14.80;90.90;;;;;;10351317;28;20223;-72
2022/05/06 21:46:32;;;;;;;10.20;4.50;;;14.70;91.60;;;;;;10349654;28;20884;-71
2022/05/06 21:51:33;;;;;;;8.57;4.47;;;14.60;91.90;;;;;;10350735;28;20307;-72
2022/05/06 21:56:34;;;;;;;9.53;5.37;;;14.60;92.50;;;;;;10370346;28;20302;-71
2022/05/06 22:01:34;;;;;;;12.40;8.30;;;14.50;93.90;;;;;;10331871;28;20292;-71
2022/05/06 22:06:36;;;;;;;7.63;4.77;;;14.50;94.90;;;;;;10368108;28;20591;-71
2022/05/06 22:11:36;;;;;;;9.97;5.23;;;14.40;96.10;;;;;;10359581;28;20222;-70
2022/05/06 22:16:37;;;;;;;10.40;6.40;;;14.30;96.90;;;;;;10363538;28;20324;-72
2022/05/06 22:21:40;;;;;;;9.50;6.27;;;14.30;98.20;;;;;;10358275;28;20602;-70
2022/05/06 22:26:41;;;;;;;4.73;3.70;;;14.20;98.70;;;;;;10364223;28;20229;-71
2022/05/06 22:31:42;;;;;;;6.67;3.90;;;14.20;99.70;;;;;;10352377;28;20236;-70
2022/05/06 22:36:45;;;;;;;6.00;3.60;;;14.10;99.90;;;;;;10366197;28;20228;-71
2022/05/06 22:47:06;;;;;;;7.23;3.90;;;13.80;99.90;;;;;;10343970;28;20233;-69
2022/05/06 22:52:07;;;;;;;5.53;3.63;;;13.70;99.90;;;;;;10340526;28;20702;-69
2022/05/06 22:57:08;;;;;;;4.97;4.10;;;13.70;99.90;;;;;;10354340;28;20227;-70
2022/05/06 23:02:08;;;;;;;8.57;4.10;;;13.60;99.90;;;;;;10334846;28;20303;-73
2022/05/06 23:07:09;;;;;;;5.03;3.70;;;13.60;99.90;;;;;;10354336;28;20249;-72
2022/05/06 23:12:11;;;;;;;6.93;4.20;;;13.50;99.90;;;;;;10359013;28;20229;-71
2022/05/06 23:17:11;;;;;;;12.33;5.57;;;13.50;99.90;;;;;;10345727;28;20221;-72
2022/05/06 23:22:12;;;;;;;7.83;4.90;;;13.40;99.90;;;;;;10359193;28;20859;-72
2022/05/06 23:27:13;;;;;;;7.23;4.37;;;13.50;99.90;;;;;;10361965;28;20249;-72
2022/05/06 23:32:14;;;;;;;12.17;4.30;;;13.50;99.90;;;;;;10332395;28;20314;-71
2022/05/06 23:37:29;;;;;;;6.70;4.63;;;13.50;99.90;;;;;;10362605;28;20225;-71
2022/05/06 23:42:30;;;;;;;10.50;4.93;;;13.50;99.90;;;;;;10345857;28;20216;-70
2022/05/06 23:47:32;;;;;;;9.13;5.27;;;13.40;99.90;;;;;;10346120;28;20229;-72
2022/05/06 23:52:32;;;;;;;7.53;4.47;;;13.40;99.90;;;;;;10360430;28;20257;-71
2022/05/06 23:57:33;;;;;;;6.63;4.17;;;13.30;99.90;;;;;;10345727;28;20249;-70
